createdAt,value
2018-12-30T00:01:01.786Z,7.69
2018-12-30T00:03:30.942Z,7.69
2018-12-30T00:06:00.877Z,7.79
2018-12-30T00:08:30.978Z,7.78
2018-12-30T00:11:00.388Z,7.79
2018-12-30T00:13:30.267Z,7.75
2018-12-30T00:15:59.842Z,7.76
2018-12-30T00:18:29.305Z,7.82
2018-12-30T00:20:58.501Z,7.83
2018-12-30T00:23:28.329Z,7.85
2018-12-30T00:25:57.556Z,7.80
2018-12-30T00:28:27.225Z,7.73
2018-12-30T00:30:56.937Z,7.77
2018-12-30T00:33:26.357Z,7.71
2018-12-30T00:35:55.772Z,7.63
2018-12-30T00:38:25.226Z,7.61
2018-12-30T00:40:54.696Z,7.61
2018-12-30T00:43:24.097Z,7.59
2018-12-30T00:45:53.673Z,7.54
2018-12-30T00:48:23.309Z,7.61
2018-12-30T00:50:52.485Z,7.64
2018-12-30T00:53:21.848Z,7.61
2018-12-30T00:55:51.370Z,7.64
2018-12-30T00:58:20.755Z,7.62
2018-12-30T01:00:50.316Z,7.58
2018-12-30T01:03:19.507Z,7.58
2018-12-30T01:05:48.637Z,7.62
2018-12-30T01:08:18.338Z,7.63
2018-12-30T01:10:47.884Z,7.54
2018-12-30T01:13:17.058Z,7.42
2018-12-30T01:15:46.798Z,7.33
2018-12-30T01:18:16.256Z,7.32
2018-12-30T01:20:45.623Z,7.27
2018-12-30T01:23:15.018Z,7.28
2018-12-30T01:25:44.208Z,7.25
2018-12-30T01:28:13.518Z,7.32
2018-12-30T01:30:43.316Z,7.27
2018-12-30T01:33:12.843Z,7.35
2018-12-30T01:35:42.019Z,7.32
2018-12-30T01:38:11.420Z,7.28
2018-12-30T01:40:41.051Z,7.27
2018-12-30T01:43:10.421Z,7.30
2018-12-30T01:45:39.841Z,7.34
2018-12-30T01:48:09.030Z,7.38
2018-12-30T01:50:38.430Z,7.39
2018-12-30T01:53:08.453Z,7.47
2018-12-30T01:55:37.888Z,7.49
2018-12-30T01:58:07.353Z,7.37
2018-12-30T02:00:37.076Z,7.40
2018-12-30T02:03:06.521Z,7.37
2018-12-30T02:05:36.205Z,7.43
2018-12-30T02:08:06.328Z,7.39
2018-12-30T02:10:35.480Z,7.46
2018-12-30T02:13:05.962Z,7.40
2018-12-30T02:15:35.398Z,7.40
2018-12-30T02:18:05.047Z,7.45
2018-12-30T02:20:34.276Z,7.46
2018-12-30T02:23:03.864Z,7.39
2018-12-30T02:25:33.268Z,7.42
2018-12-30T02:28:02.693Z,7.42
2018-12-30T02:30:32.361Z,7.53
2018-12-30T02:33:01.909Z,7.51
2018-12-30T02:35:31.065Z,7.47
2018-12-30T02:38:00.666Z,7.47
2018-12-30T02:40:30.062Z,7.40
2018-12-30T02:42:59.264Z,7.41
2018-12-30T02:45:28.930Z,7.37
2018-12-30T02:47:58.103Z,7.32
2018-12-30T02:50:27.302Z,7.26
2018-12-30T02:52:57.380Z,7.25
2018-12-30T02:55:26.759Z,7.24
2018-12-30T02:57:56.019Z,7.17
2018-12-30T03:00:25.370Z,7.17
2018-12-30T03:02:54.503Z,7.22
2018-12-30T03:05:23.943Z,7.18
2018-12-30T03:07:53.622Z,7.10
2018-12-30T03:10:23.023Z,7.14
2018-12-30T03:12:52.451Z,7.11
2018-12-30T03:15:22.021Z,7.06
2018-12-30T03:17:51.601Z,7.10
2018-12-30T03:20:21.048Z,7.05
2018-12-30T03:22:50.635Z,7.09
2018-12-30T03:25:20.086Z,7.15
2018-12-30T03:27:49.530Z,7.14
2018-12-30T03:30:19.351Z,7.17
2018-12-30T03:32:48.710Z,7.19
2018-12-30T03:35:18.713Z,7.17
2018-12-30T03:37:48.386Z,7.12
2018-12-30T03:40:17.576Z,7.15
2018-12-30T03:42:47.026Z,7.08
2018-12-30T03:45:16.692Z,7.04
2018-12-30T03:47:46.100Z,7.03
2018-12-30T03:50:15.234Z,7.05
2018-12-30T03:52:44.907Z,7.02
2018-12-30T03:55:14.396Z,7.04
2018-12-30T03:57:43.761Z,7.03
2018-12-30T04:00:13.182Z,7.00
2018-12-30T04:02:42.622Z,6.98
2018-12-30T04:05:12.008Z,6.97
2018-12-30T04:07:41.398Z,6.95
2018-12-30T04:10:10.539Z,6.99
2018-12-30T04:12:39.681Z,7.08
2018-12-30T04:15:09.410Z,7.04
2018-12-30T04:17:38.506Z,7.09
2018-12-30T04:20:07.731Z,7.05
2018-12-30T04:22:37.269Z,7.09
2018-12-30T04:25:06.441Z,7.11
2018-12-30T04:27:35.865Z,7.20
2018-12-30T04:30:07.764Z,7.24
2018-12-30T04:32:37.007Z,7.17
2018-12-30T04:35:07.024Z,7.21
2018-12-30T04:37:36.801Z,7.24
2018-12-30T04:40:07.202Z,7.22
2018-12-30T04:42:36.508Z,7.26
2018-12-30T04:45:06.828Z,7.31
2018-12-30T04:47:36.311Z,7.32
2018-12-30T04:50:07.705Z,7.33
2018-12-30T04:52:36.814Z,7.32
2018-12-30T04:55:07.122Z,7.33
2018-12-30T04:57:36.416Z,7.38
2018-12-30T05:00:06.602Z,7.38
2018-12-30T05:02:36.052Z,7.34
2018-12-30T05:05:07.004Z,7.33
2018-12-30T05:07:36.463Z,7.28
2018-12-30T05:10:06.772Z,7.34
2018-12-30T05:12:36.427Z,7.34
2018-12-30T05:15:07.507Z,7.33
2018-12-30T05:17:37.038Z,7.32
2018-12-30T05:20:07.502Z,7.29
2018-12-30T05:22:36.871Z,7.23
2018-12-30T05:25:07.013Z,7.34
2018-12-30T05:27:36.401Z,7.27
2018-12-30T05:30:07.363Z,7.31
2018-12-30T05:32:37.057Z,7.29
2018-12-30T05:35:06.737Z,7.27
2018-12-30T05:37:35.838Z,7.34
2018-12-30T05:40:06.179Z,7.34
2018-12-30T05:42:35.329Z,7.28
2018-12-30T05:45:05.986Z,7.24
2018-12-30T05:47:35.643Z,7.26
2018-12-30T05:50:09.928Z,7.32
2018-12-30T05:52:42.024Z,7.29
2018-12-30T05:55:10.440Z,7.26
2018-12-30T05:57:39.728Z,7.26
2018-12-30T06:00:09.477Z,7.24
2018-12-30T06:02:38.932Z,7.38
2018-12-30T06:05:08.029Z,7.36
2018-12-30T06:07:37.476Z,7.37
2018-12-30T06:10:06.935Z,7.45
2018-12-30T06:12:36.308Z,7.41
2018-12-30T06:15:07.962Z,7.32
2018-12-30T06:17:37.386Z,7.38
2018-12-30T06:20:06.844Z,7.45
2018-12-30T06:22:36.459Z,7.48
2018-12-30T06:25:06.472Z,7.44
2018-12-30T06:27:35.845Z,7.37
2018-12-30T06:30:07.765Z,7.38
2018-12-30T06:32:37.201Z,7.45
2018-12-30T06:35:06.897Z,7.46
2018-12-30T06:37:36.565Z,7.55
2018-12-30T06:40:11.352Z,7.56
2018-12-30T06:42:38.669Z,7.57
2018-12-30T06:45:07.845Z,7.58
2018-12-30T06:47:37.237Z,7.59
2018-12-30T06:50:07.928Z,7.59
2018-12-30T06:52:37.097Z,7.60
2018-12-30T06:55:06.579Z,7.63
2018-12-30T06:57:36.183Z,7.63
2018-12-30T07:00:07.052Z,7.64
2018-12-30T07:02:36.267Z,7.64
2018-12-30T07:05:07.439Z,7.61
2018-12-30T07:07:36.949Z,7.64
2018-12-30T07:10:07.372Z,7.59
2018-12-30T07:12:37.098Z,7.64
2018-12-30T07:15:07.655Z,7.64
2018-12-30T07:17:37.215Z,7.54
2018-12-30T07:20:07.778Z,7.56
2018-12-30T07:22:36.966Z,7.57
2018-12-30T07:25:06.580Z,7.50
2018-12-30T07:27:36.104Z,7.51
2018-12-30T07:30:07.028Z,7.46
2018-12-30T07:32:36.440Z,7.46
2018-12-30T07:35:06.583Z,7.52
2018-12-30T07:37:35.765Z,7.53
2018-12-30T07:40:06.712Z,7.52
2018-12-30T07:42:36.625Z,7.38
2018-12-30T07:45:06.737Z,7.35
2018-12-30T07:47:36.132Z,7.35
2018-12-30T07:50:08.156Z,7.32
2018-12-30T07:52:37.292Z,7.38
2018-12-30T07:55:06.429Z,7.38
2018-12-30T07:57:35.872Z,7.39
2018-12-30T08:00:08.757Z,7.38
2018-12-30T08:02:38.507Z,7.42
2018-12-30T08:05:07.897Z,7.38
2018-12-30T08:07:37.097Z,7.31
2018-12-30T08:10:06.473Z,7.26
2018-12-30T08:12:35.906Z,7.21
2018-12-30T08:15:07.448Z,7.22
2018-12-30T08:17:36.557Z,7.29
2018-12-30T08:20:08.540Z,7.29
2018-12-30T08:22:37.970Z,7.32
2018-12-30T08:25:07.086Z,7.33
2018-12-30T08:27:36.668Z,7.38
2018-12-30T08:30:07.268Z,7.35
2018-12-30T08:32:36.634Z,7.33
2018-12-30T08:35:06.862Z,7.28
2018-12-30T08:37:36.030Z,7.20
2018-12-30T08:40:07.664Z,7.26
2018-12-30T08:42:37.061Z,7.29
2018-12-30T08:45:07.704Z,7.20
2018-12-30T08:47:37.327Z,7.24
2018-12-30T08:50:08.137Z,7.26
2018-12-30T08:52:37.289Z,7.24
2018-12-30T08:55:07.085Z,7.21
2018-12-30T08:57:36.191Z,7.22
2018-12-30T09:00:07.373Z,7.22
2018-12-30T09:02:36.718Z,7.24
2018-12-30T09:05:06.070Z,7.22
2018-12-30T09:07:35.532Z,7.25
2018-12-30T09:10:08.679Z,7.23
2018-12-30T09:12:38.129Z,7.23
2018-12-30T09:15:07.373Z,7.26
2018-12-30T09:17:36.599Z,7.24
2018-12-30T09:20:06.460Z,7.31
2018-12-30T09:22:35.886Z,7.33
2018-12-30T09:25:06.595Z,7.33
2018-12-30T09:27:35.728Z,7.24
2018-12-30T09:30:06.658Z,7.30
2018-12-30T09:32:36.176Z,7.22
2018-12-30T09:35:05.479Z,7.25
2018-12-30T09:37:34.741Z,7.23
2018-12-30T09:40:05.012Z,7.21
2018-12-30T09:42:34.472Z,7.13
2018-12-30T09:45:03.898Z,7.23
2018-12-30T09:47:34.024Z,7.24
2018-12-30T09:50:03.334Z,7.20
2018-12-30T09:52:32.553Z,7.17
2018-12-30T09:55:02.100Z,7.23
2018-12-30T09:57:31.274Z,7.24
2018-12-30T10:00:00.450Z,7.23
2018-12-30T10:02:30.135Z,7.19
2018-12-30T10:05:18.829Z,7.15
2018-12-30T10:07:48.386Z,7.13
2018-12-30T10:10:18.190Z,7.12
2018-12-30T10:12:47.806Z,7.16
2018-12-30T10:15:17.639Z,7.11
2018-12-30T10:17:47.281Z,7.24
2018-12-30T10:20:17.096Z,7.26
2018-12-30T10:22:46.658Z,7.30
2018-12-30T10:25:15.925Z,7.32
2018-12-30T10:27:45.386Z,7.21
2018-12-30T10:30:15.368Z,7.29
2018-12-30T10:32:44.807Z,7.25
2018-12-30T10:35:14.589Z,7.34
2018-12-30T10:37:44.260Z,7.27
2018-12-30T10:40:13.659Z,7.27
2018-12-30T10:42:43.093Z,7.35
2018-12-30T10:45:12.424Z,7.36
2018-12-30T10:47:41.959Z,7.30
2018-12-30T10:50:11.195Z,7.33
2018-12-30T10:52:40.905Z,7.31
2018-12-30T10:55:10.318Z,7.37
2018-12-30T10:57:39.433Z,7.41
2018-12-30T11:00:09.390Z,7.42
2018-12-30T11:02:38.893Z,7.53
2018-12-30T11:05:08.005Z,7.57
2018-12-30T11:07:37.316Z,7.65
2018-12-30T11:10:06.540Z,7.60
2018-12-30T11:12:35.676Z,7.57
2018-12-30T11:15:06.779Z,7.56
2018-12-30T11:17:36.276Z,7.63
2018-12-30T11:20:07.314Z,7.62
2018-12-30T11:22:36.728Z,7.60
2018-12-30T11:25:06.874Z,7.56
2018-12-30T11:27:36.608Z,7.58
2018-12-30T11:30:27.178Z,7.57
2018-12-30T11:32:56.864Z,7.58
2018-12-30T11:35:26.254Z,7.64
2018-12-30T11:37:55.410Z,7.57
2018-12-30T11:40:25.228Z,7.46
2018-12-30T11:42:54.602Z,7.55
2018-12-30T11:45:24.071Z,7.63
2018-12-30T11:47:54.042Z,7.62
2018-12-30T11:50:23.558Z,7.57
2018-12-30T11:52:52.807Z,7.61
2018-12-30T11:55:22.180Z,7.69
2018-12-30T11:57:51.452Z,7.62
2018-12-30T12:00:20.584Z,7.58
2018-12-30T12:02:50.254Z,7.65
2018-12-30T12:05:19.395Z,7.67
2018-12-30T12:07:48.807Z,7.72
2018-12-30T12:10:18.302Z,7.72
2018-12-30T12:12:48.987Z,7.68
2018-12-30T12:15:18.580Z,7.69
2018-12-30T12:17:47.913Z,7.77
2018-12-30T12:20:17.342Z,7.78
2018-12-30T12:22:47.274Z,7.79
2018-12-30T12:25:17.029Z,7.87
2018-12-30T12:27:46.481Z,7.92
2018-12-30T12:30:15.631Z,7.86
2018-12-30T12:32:45.136Z,7.81
2018-12-30T12:35:14.646Z,7.71
2018-12-30T12:37:43.741Z,7.81
2018-12-30T12:40:13.005Z,7.83
2018-12-30T12:42:42.330Z,7.84
2018-12-30T12:45:11.745Z,7.82
2018-12-30T12:47:41.120Z,7.75
2018-12-30T12:50:10.476Z,7.76
2018-12-30T12:52:39.621Z,7.83
2018-12-30T12:55:09.125Z,7.86
2018-12-30T12:57:38.791Z,7.90
2018-12-30T13:00:11.311Z,7.88
2018-12-30T13:02:40.471Z,7.94
2018-12-30T13:05:09.651Z,7.86
2018-12-30T13:07:39.071Z,7.92
2018-12-30T13:10:10.990Z,7.94
2018-12-30T13:12:40.152Z,7.99
2018-12-30T13:15:09.358Z,7.99
2018-12-30T13:17:38.775Z,7.83
2018-12-30T13:20:08.204Z,7.87
2018-12-30T13:22:37.596Z,7.85
2018-12-30T13:25:06.981Z,7.76
2018-12-30T13:27:36.228Z,7.75
2018-12-30T13:30:08.328Z,7.78
2018-12-30T13:32:37.719Z,7.80
2018-12-30T13:35:07.577Z,7.80
2018-12-30T13:37:36.762Z,7.71
2018-12-30T13:40:07.083Z,7.68
2018-12-30T13:42:36.580Z,7.61
2018-12-30T13:45:06.742Z,7.64
2018-12-30T13:47:35.911Z,7.65
2018-12-30T13:50:07.314Z,7.60
2018-12-30T13:52:36.922Z,7.54
2018-12-30T13:55:06.443Z,7.52
2018-12-30T13:57:35.620Z,7.50
2018-12-30T14:00:09.497Z,7.50
2018-12-30T14:02:39.060Z,7.40
2018-12-30T14:05:08.477Z,7.21
2018-12-30T14:07:37.605Z,7.16
2018-12-30T14:10:09.822Z,7.19
2018-12-30T14:12:39.249Z,7.28
2018-12-30T14:15:08.356Z,7.17
2018-12-30T14:17:37.537Z,7.23
2018-12-30T14:20:08.908Z,7.01
2018-12-30T14:22:37.986Z,6.91
2018-12-30T14:25:07.186Z,6.95
2018-12-30T14:27:36.657Z,6.93
2018-12-30T14:30:08.151Z,6.88
2018-12-30T14:32:37.239Z,6.84
2018-12-30T14:35:06.389Z,6.87
2018-12-30T14:37:35.822Z,6.76
2018-12-30T14:40:07.063Z,6.77
2018-12-30T14:42:36.571Z,6.77
2018-12-30T14:45:08.269Z,6.71
2018-12-30T14:47:37.666Z,6.83
2018-12-30T14:50:09.942Z,6.76
2018-12-30T14:52:39.619Z,6.71
2018-12-30T14:55:08.944Z,6.70
2018-12-30T14:57:38.331Z,6.62
2018-12-30T15:00:08.338Z,6.59
2018-12-30T15:02:37.846Z,6.58
2018-12-30T15:05:07.340Z,6.60
2018-12-30T15:07:36.537Z,6.61
2018-12-30T15:10:06.300Z,6.62
2018-12-30T15:12:35.483Z,6.69
2018-12-30T15:15:04.998Z,6.75
2018-12-30T15:17:34.362Z,6.75
2018-12-30T15:20:04.691Z,6.62
2018-12-30T15:22:33.865Z,6.67
2018-12-30T15:25:03.279Z,6.59
2018-12-30T15:27:32.362Z,6.56
2018-12-30T15:30:01.560Z,6.59
2018-12-30T15:32:30.760Z,6.47
2018-12-30T15:34:59.956Z,6.43
2018-12-30T15:37:29.261Z,6.40
2018-12-30T15:39:58.386Z,6.48
2018-12-30T15:42:27.522Z,6.42
2018-12-30T15:44:56.762Z,6.45
2018-12-30T15:47:25.915Z,6.40
2018-12-30T15:49:55.041Z,6.31
2018-12-30T15:52:24.464Z,6.27
2018-12-30T15:54:54.609Z,6.20
2018-12-30T15:57:23.783Z,6.15
2018-12-30T15:59:53.770Z,6.17
2018-12-30T16:02:23.161Z,6.14
2018-12-30T16:04:52.334Z,6.10
2018-12-30T16:07:21.701Z,6.05
2018-12-30T16:09:50.851Z,6.04
2018-12-30T16:12:20.427Z,5.99
2018-12-30T16:14:49.523Z,5.91
2018-12-30T16:17:18.652Z,5.98
2018-12-30T16:19:47.839Z,5.93
2018-12-30T16:22:16.970Z,5.90
2018-12-30T16:24:46.096Z,5.79
2018-12-30T16:27:15.270Z,5.81
2018-12-30T16:29:44.451Z,5.73
2018-12-30T16:32:13.639Z,5.77
2018-12-30T16:34:42.776Z,5.73
2018-12-30T16:37:11.924Z,5.77
2018-12-30T16:39:41.096Z,5.72
2018-12-30T16:42:10.225Z,5.68
2018-12-30T16:44:39.364Z,5.65
2018-12-30T16:47:08.840Z,5.57
2018-12-30T16:49:38.206Z,5.52
2018-12-30T16:52:07.567Z,5.58
2018-12-30T16:54:38.396Z,5.53
2018-12-30T16:57:08.207Z,5.60
2018-12-30T16:59:37.298Z,5.51
2018-12-30T17:02:06.492Z,5.54
2018-12-30T17:04:35.878Z,5.56
2018-12-30T17:07:05.956Z,5.60
2018-12-30T17:09:35.400Z,5.65
2018-12-30T17:12:05.610Z,5.60
2018-12-30T17:14:35.702Z,5.57
2018-12-30T17:17:06.946Z,5.56
2018-12-30T17:19:36.515Z,5.50
2018-12-30T17:22:06.755Z,5.56
2018-12-30T17:24:36.566Z,5.56
2018-12-30T17:27:06.206Z,5.62
2018-12-30T17:29:35.298Z,5.48
2018-12-30T17:32:05.920Z,5.45
2018-12-30T17:34:35.717Z,5.50
2018-12-30T17:37:06.275Z,5.56
2018-12-30T17:39:35.385Z,5.48
2018-12-30T17:42:05.763Z,5.38
2018-12-30T17:44:34.916Z,5.38
2018-12-30T17:47:05.177Z,5.41
2018-12-30T17:49:34.633Z,5.37
2018-12-30T17:52:04.005Z,5.24
2018-12-30T17:54:33.089Z,5.31
2018-12-30T17:57:02.541Z,5.21
2018-12-30T17:59:31.991Z,5.22
2018-12-30T18:02:01.210Z,5.24
2018-12-30T18:04:30.379Z,5.16
2018-12-30T18:06:59.507Z,5.19
2018-12-30T18:09:28.644Z,5.13
2018-12-30T18:12:01.324Z,5.14
2018-12-30T18:14:30.435Z,5.10
2018-12-30T18:16:59.558Z,5.05
2018-12-30T18:19:28.726Z,5.06
2018-12-30T18:21:58.005Z,5.03
2018-12-30T18:24:27.144Z,5.05
2018-12-30T18:26:56.293Z,5.05
2018-12-30T18:29:25.419Z,5.06
2018-12-30T18:31:54.862Z,5.13
2018-12-30T18:34:24.247Z,5.14
2018-12-30T18:36:53.375Z,5.05
2018-12-30T18:39:22.518Z,5.04
2018-12-30T18:41:51.650Z,5.08
2018-12-30T18:44:21.056Z,5.14
2018-12-30T18:46:50.459Z,5.15
2018-12-30T18:49:19.574Z,5.05
2018-12-30T18:51:48.706Z,5.03
2018-12-30T18:54:18.174Z,5.10
2018-12-30T18:56:47.258Z,5.10
2018-12-30T18:59:16.408Z,5.05
2018-12-30T19:01:45.796Z,4.99
2018-12-30T19:04:14.930Z,4.93
2018-12-30T19:06:44.342Z,4.85
2018-12-30T19:09:13.483Z,4.88
2018-12-30T19:11:42.610Z,4.91
2018-12-30T19:14:12.085Z,4.87
2018-12-30T19:16:41.258Z,4.85
2018-12-30T19:19:10.512Z,4.89
2018-12-30T19:21:39.699Z,4.90
2018-12-30T19:24:08.896Z,4.85
2018-12-30T19:26:38.020Z,4.82
2018-12-30T19:29:07.148Z,4.84
2018-12-30T19:31:36.613Z,4.82
2018-12-30T19:34:05.929Z,4.93
2018-12-30T19:36:35.293Z,5.01
2018-12-30T19:39:06.324Z,5.01
2018-12-30T19:41:35.840Z,4.99
2018-12-30T19:44:06.516Z,5.08
2018-12-30T19:46:35.928Z,5.13
2018-12-30T19:49:06.189Z,5.18
2018-12-30T19:51:35.643Z,5.17
2018-12-30T19:54:05.089Z,5.18
2018-12-30T19:56:34.687Z,5.22
2018-12-30T19:59:05.207Z,5.21
2018-12-30T20:01:34.892Z,5.21
2018-12-30T20:04:04.496Z,5.26
2018-12-30T20:06:33.966Z,5.32
2018-12-30T20:09:04.466Z,5.30
2018-12-30T20:11:33.715Z,5.27
2018-12-30T20:14:02.864Z,5.29
2018-12-30T20:16:32.372Z,5.26
2018-12-30T20:19:01.655Z,5.21
2018-12-30T20:21:31.073Z,5.08
2018-12-30T20:24:00.173Z,5.02
2018-12-30T20:26:30.026Z,5.08
2018-12-30T20:28:59.372Z,4.97
2018-12-30T20:31:28.775Z,4.99
2018-12-30T20:33:58.183Z,4.84
2018-12-30T20:36:27.422Z,4.74
2018-12-30T20:38:58.480Z,4.71
2018-12-30T20:41:27.932Z,4.75
2018-12-30T20:43:57.556Z,4.74
2018-12-30T20:46:26.889Z,4.81
2018-12-30T20:48:56.656Z,4.85
2018-12-30T20:51:25.926Z,4.84
2018-12-30T20:53:55.075Z,4.86
2018-12-30T20:56:24.573Z,4.87
2018-12-30T20:58:53.924Z,4.94
2018-12-30T21:01:23.467Z,4.95
2018-12-30T21:03:53.020Z,5.03
2018-12-30T21:06:22.984Z,5.02
2018-12-30T21:08:52.313Z,5.10
2018-12-30T21:11:21.877Z,5.16
2018-12-30T21:13:51.658Z,5.23
2018-12-30T21:16:21.539Z,5.27
2018-12-30T21:18:51.849Z,5.21
2018-12-30T21:21:21.506Z,5.20
2018-12-30T21:23:50.781Z,5.26
2018-12-30T21:26:20.056Z,5.27
2018-12-30T21:28:49.535Z,5.24
2018-12-30T21:31:19.152Z,5.27
2018-12-30T21:33:48.678Z,5.26
2018-12-30T21:36:18.012Z,5.21
2018-12-30T21:38:47.566Z,5.21
2018-12-30T21:41:16.979Z,5.19
2018-12-30T21:43:46.408Z,5.15
2018-12-30T21:46:15.999Z,5.04
2018-12-30T21:48:46.886Z,5.05
2018-12-30T21:51:16.140Z,5.05
2018-12-30T21:53:45.306Z,5.10
2018-12-30T21:56:14.475Z,5.04
2018-12-30T21:58:43.642Z,5.05
2018-12-30T22:01:13.053Z,4.99
2018-12-30T22:03:42.482Z,5.02
2018-12-30T22:06:11.616Z,4.97
2018-12-30T22:08:41.040Z,4.98
2018-12-30T22:11:11.196Z,4.95
2018-12-30T22:13:40.372Z,4.97
2018-12-30T22:16:10.382Z,4.97
2018-12-30T22:18:39.517Z,5.03
2018-12-30T22:21:09.118Z,5.11
2018-12-30T22:23:38.496Z,5.02
2018-12-30T22:26:09.686Z,4.85
2018-12-30T22:28:39.941Z,4.59
2018-12-30T22:31:09.342Z,4.47
2018-12-30T22:33:38.754Z,4.37
2018-12-30T22:36:08.684Z,4.48
2018-12-30T22:38:37.785Z,4.55
2018-12-30T22:41:07.245Z,4.55
2018-12-30T22:43:36.427Z,4.70
2018-12-30T22:46:06.015Z,4.64
2018-12-30T22:48:35.512Z,4.70
2018-12-30T22:51:06.066Z,4.67
2018-12-30T22:53:35.201Z,4.75
2018-12-30T22:56:05.803Z,4.73
2018-12-30T22:58:35.213Z,4.61
2018-12-30T23:01:06.251Z,4.54
2018-12-30T23:03:35.749Z,4.48
2018-12-30T23:06:05.689Z,4.48
2018-12-30T23:08:35.088Z,4.39
2018-12-30T23:11:04.757Z,4.43
2018-12-30T23:13:34.151Z,4.40
2018-12-30T23:16:03.305Z,4.29
2018-12-30T23:18:32.746Z,4.31
2018-12-30T23:21:01.856Z,4.28
2018-12-30T23:23:31.345Z,4.25
2018-12-30T23:26:00.849Z,4.27
2018-12-30T23:28:29.929Z,4.24
2018-12-30T23:30:59.106Z,4.15
2018-12-30T23:33:28.550Z,4.05
2018-12-30T23:35:57.656Z,4.13
2018-12-30T23:38:26.793Z,4.10
2018-12-30T23:40:55.972Z,4.06
2018-12-30T23:43:25.375Z,4.03
2018-12-30T23:45:54.824Z,4.00
2018-12-30T23:48:23.966Z,3.96
2018-12-30T23:50:53.094Z,3.90
2018-12-30T23:53:22.489Z,3.93
2018-12-30T23:55:54.111Z,3.88
2018-12-30T23:58:23.469Z,3.84
